sensor_id;sensor_type;location;lat;lon;timestamp;temperature;humidity
4548;DHT22;2286;51.570;7.090;2022-09-09T00:02:27;14.90;99.90
4548;DHT22;2286;51.570;7.090;2022-09-09T00:05:00;14.90;99.90
4548;DHT22;2286;51.570;7.090;2022-09-09T00:07:37;14.80;99.90
4548;DHT22;2286;51.570;7.090;2022-09-09T00:10:16;14.80;99.90
4548;DHT22;2286;51.570;7.090;2022-09-09T00:12:52;14.80;99.90
4548;DHT22;2286;51.570;7.090;2022-09-09T00:15:25;14.90;99.90
4548;DHT22;2286;51.570;7.090;2022-09-09T00:17:59;14.80;99.90
4548;DHT22;2286;51.570;7.090;2022-09-09T00:20:34;14.80;99.90
4548;DHT22;2286;51.570;7.090;2022-09-09T00:23:10;14.80;99.90
4548;DHT22;2286;51.570;7.090;2022-09-09T00:25:43;14.80;99.90
4548;DHT22;2286;51.570;7.090;2022-09-09T00:28:19;14.80;99.90
4548;DHT22;2286;51.570;7.090;2022-09-09T00:30:46;14.80;99.90
4548;DHT22;2286;51.570;7.090;2022-09-09T00:33:17;14.80;99.90
4548;DHT22;2286;51.570;7.090;2022-09-09T00:35:49;14.70;99.90
4548;DHT22;2286;51.570;7.090;2022-09-09T00:38:19;14.80;99.90
4548;DHT22;2286;51.570;7.090;2022-09-09T00:40:51;14.70;99.90
4548;DHT22;2286;51.570;7.090;2022-09-09T00:43:28;14.80;99.90
4548;DHT22;2286;51.570;7.090;2022-09-09T00:49:03;14.70;99.90
4548;DHT22;2286;51.570;7.090;2022-09-09T00:51:42;14.70;99.90
4548;DHT22;2286;51.570;7.090;2022-09-09T00:54:21;14.60;99.90
4548;DHT22;2286;51.570;7.090;2022-09-09T00:56:57;14.50;99.90
4548;DHT22;2286;51.570;7.090;2022-09-09T00:59:40;14.40;99.90
4548;DHT22;2286;51.570;7.090;2022-09-09T01:02:21;14.40;99.90
4548;DHT22;2286;51.570;7.090;2022-09-09T01:04:54;14.30;99.90
4548;DHT22;2286;51.570;7.090;2022-09-09T01:07:21;14.30;99.90
4548;DHT22;2286;51.570;7.090;2022-09-09T01:09:54;14.40;99.90
4548;DHT22;2286;51.570;7.090;2022-09-09T01:12:29;14.40;99.90
4548;DHT22;2286;51.570;7.090;2022-09-09T01:15:08;14.40;99.90
4548;DHT22;2286;51.570;7.090;2022-09-09T01:17:52;14.50;99.90
4548;DHT22;2286;51.570;7.090;2022-09-09T01:20:25;14.60;99.90
4548;DHT22;2286;51.570;7.090;2022-09-09T01:23:04;14.60;99.90
4548;DHT22;2286;51.570;7.090;2022-09-09T01:26:15;14.70;99.90
4548;DHT22;2286;51.570;7.090;2022-09-09T01:28:46;14.70;99.90
4548;DHT22;2286;51.570;7.090;2022-09-09T01:31:17;14.70;99.90
4548;DHT22;2286;51.570;7.090;2022-09-09T01:33:45;14.70;99.90
4548;DHT22;2286;51.570;7.090;2022-09-09T01:36:15;14.60;99.90
4548;DHT22;2286;51.570;7.090;2022-09-09T01:38:44;14.60;99.90
4548;DHT22;2286;51.570;7.090;2022-09-09T01:41:13;14.70;99.90
4548;DHT22;2286;51.570;7.090;2022-09-09T01:43:40;14.70;99.90
4548;DHT22;2286;51.570;7.090;2022-09-09T01:46:07;14.70;99.90
4548;DHT22;2286;51.570;7.090;2022-09-09T01:48:34;14.60;99.90
4548;DHT22;2286;51.570;7.090;2022-09-09T01:51:01;14.40;99.90
4548;DHT22;2286;51.570;7.090;2022-09-09T01:53:29;14.40;99.90
4548;DHT22;2286;51.570;7.090;2022-09-09T01:56:03;14.20;99.90
4548;DHT22;2286;51.570;7.090;2022-09-09T01:58:45;14.20;99.90
4548;DHT22;2286;51.570;7.090;2022-09-09T02:01:21;14.10;99.90
4548;DHT22;2286;51.570;7.090;2022-09-09T02:03:52;14.00;99.90
4548;DHT22;2286;51.570;7.090;2022-09-09T02:06:27;14.00;99.90
4548;DHT22;2286;51.570;7.090;2022-09-09T02:08:59;14.00;99.90
4548;DHT22;2286;51.570;7.090;2022-09-09T02:11:28;13.90;99.90
4548;DHT22;2286;51.570;7.090;2022-09-09T02:14:00;13.90;99.90
4548;DHT22;2286;51.570;7.090;2022-09-09T02:16:32;13.90;99.90
4548;DHT22;2286;51.570;7.090;2022-09-09T02:19:04;13.80;99.90
4548;DHT22;2286;51.570;7.090;2022-09-09T02:21:33;13.80;99.90
4548;DHT22;2286;51.570;7.090;2022-09-09T02:24:04;13.70;99.90
4548;DHT22;2286;51.570;7.090;2022-09-09T02:26:34;13.80;99.90
4548;DHT22;2286;51.570;7.090;2022-09-09T02:29:08;13.80;99.90
4548;DHT22;2286;51.570;7.090;2022-09-09T02:31:37;13.90;99.90
4548;DHT22;2286;51.570;7.090;2022-09-09T02:34:06;13.90;99.90
4548;DHT22;2286;51.570;7.090;2022-09-09T02:36:36;14.00;99.90
4548;DHT22;2286;51.570;7.090;2022-09-09T02:39:07;14.00;99.90
4548;DHT22;2286;51.570;7.090;2022-09-09T02:41:35;14.00;99.90
4548;DHT22;2286;51.570;7.090;2022-09-09T02:44:10;14.10;99.90
4548;DHT22;2286;51.570;7.090;2022-09-09T02:46:52;14.10;99.90
4548;DHT22;2286;51.570;7.090;2022-09-09T02:49:30;14.20;99.90
4548;DHT22;2286;51.570;7.090;2022-09-09T02:52:04;14.30;99.90
4548;DHT22;2286;51.570;7.090;2022-09-09T02:54:33;14.30;99.90
4548;DHT22;2286;51.570;7.090;2022-09-09T02:57:06;14.40;99.90
4548;DHT22;2286;51.570;7.090;2022-09-09T02:59:36;14.40;99.90
4548;DHT22;2286;51.570;7.090;2022-09-09T03:02:04;14.40;99.90
4548;DHT22;2286;51.570;7.090;2022-09-09T03:04:31;14.50;99.90
4548;DHT22;2286;51.570;7.090;2022-09-09T03:06:59;14.60;99.90
4548;DHT22;2286;51.570;7.090;2022-09-09T03:09:26;14.60;99.90
4548;DHT22;2286;51.570;7.090;2022-09-09T03:11:53;14.70;99.90
4548;DHT22;2286;51.570;7.090;2022-09-09T03:14:21;14.70;99.90
4548;DHT22;2286;51.570;7.090;2022-09-09T03:16:52;14.70;99.90
4548;DHT22;2286;51.570;7.090;2022-09-09T03:19:20;14.60;99.90
4548;DHT22;2286;51.570;7.090;2022-09-09T03:21:48;14.60;99.90
4548;DHT22;2286;51.570;7.090;2022-09-09T03:24:15;14.60;99.90
4548;DHT22;2286;51.570;7.090;2022-09-09T03:26:43;14.40;99.90
4548;DHT22;2286;51.570;7.090;2022-09-09T03:29:11;14.40;99.90
4548;DHT22;2286;51.570;7.090;2022-09-09T03:31:39;14.40;99.90
4548;DHT22;2286;51.570;7.090;2022-09-09T03:34:08;14.30;99.90
4548;DHT22;2286;51.570;7.090;2022-09-09T03:36:35;14.20;99.90
4548;DHT22;2286;51.570;7.090;2022-09-09T03:39:02;14.20;99.90
4548;DHT22;2286;51.570;7.090;2022-09-09T03:41:30;14.20;99.90
4548;DHT22;2286;51.570;7.090;2022-09-09T03:43:59;14.10;99.90
4548;DHT22;2286;51.570;7.090;2022-09-09T03:46:26;14.20;99.90
4548;DHT22;2286;51.570;7.090;2022-09-09T03:48:53;14.20;99.90
4548;DHT22;2286;51.570;7.090;2022-09-09T03:51:22;14.20;99.90
4548;DHT22;2286;51.570;7.090;2022-09-09T03:53:49;14.20;99.90
4548;DHT22;2286;51.570;7.090;2022-09-09T03:56:16;14.30;99.90
4548;DHT22;2286;51.570;7.090;2022-09-09T03:58:43;14.20;99.90
4548;DHT22;2286;51.570;7.090;2022-09-09T04:01:12;14.20;99.90
4548;DHT22;2286;51.570;7.090;2022-09-09T04:03:39;14.20;99.90
4548;DHT22;2286;51.570;7.090;2022-09-09T04:06:08;14.20;99.90
4548;DHT22;2286;51.570;7.090;2022-09-09T04:08:39;14.30;99.90
4548;DHT22;2286;51.570;7.090;2022-09-09T04:11:07;14.20;99.90
4548;DHT22;2286;51.570;7.090;2022-09-09T04:13:35;14.20;99.90
4548;DHT22;2286;51.570;7.090;2022-09-09T04:16:05;14.20;99.90
4548;DHT22;2286;51.570;7.090;2022-09-09T04:18:33;14.20;99.90
4548;DHT22;2286;51.570;7.090;2022-09-09T04:21:01;14.20;99.90
4548;DHT22;2286;51.570;7.090;2022-09-09T04:23:29;14.10;99.90
4548;DHT22;2286;51.570;7.090;2022-09-09T04:25:59;14.10;99.90
4548;DHT22;2286;51.570;7.090;2022-09-09T04:28:28;14.10;99.90
4548;DHT22;2286;51.570;7.090;2022-09-09T04:30:55;14.10;99.90
4548;DHT22;2286;51.570;7.090;2022-09-09T04:33:24;14.10;99.90
4548;DHT22;2286;51.570;7.090;2022-09-09T04:35:52;14.00;99.90
4548;DHT22;2286;51.570;7.090;2022-09-09T04:38:20;14.00;99.90
4548;DHT22;2286;51.570;7.090;2022-09-09T04:40:50;14.00;99.90
4548;DHT22;2286;51.570;7.090;2022-09-09T04:43:21;13.90;99.90
4548;DHT22;2286;51.570;7.090;2022-09-09T04:45:49;13.90;99.90
4548;DHT22;2286;51.570;7.090;2022-09-09T04:48:17;13.90;99.90
4548;DHT22;2286;51.570;7.090;2022-09-09T04:50:44;13.90;99.90
4548;DHT22;2286;51.570;7.090;2022-09-09T04:53:20;13.90;99.90
4548;DHT22;2286;51.570;7.090;2022-09-09T04:55:47;13.90;99.90
4548;DHT22;2286;51.570;7.090;2022-09-09T04:58:15;14.00;99.90
4548;DHT22;2286;51.570;7.090;2022-09-09T05:00:44;14.00;99.90
4548;DHT22;2286;51.570;7.090;2022-09-09T05:03:12;14.10;99.90
4548;DHT22;2286;51.570;7.090;2022-09-09T05:05:39;14.20;99.90
4548;DHT22;2286;51.570;7.090;2022-09-09T05:08:07;14.20;99.90
4548;DHT22;2286;51.570;7.090;2022-09-09T05:10:37;14.30;99.90
4548;DHT22;2286;51.570;7.090;2022-09-09T05:13:05;14.30;99.90
4548;DHT22;2286;51.570;7.090;2022-09-09T05:15:33;14.40;99.90
4548;DHT22;2286;51.570;7.090;2022-09-09T05:18:02;14.50;99.90
4548;DHT22;2286;51.570;7.090;2022-09-09T05:20:29;14.40;99.90
4548;DHT22;2286;51.570;7.090;2022-09-09T05:22:57;14.40;99.90
4548;DHT22;2286;51.570;7.090;2022-09-09T05:25:24;14.50;99.90
4548;DHT22;2286;51.570;7.090;2022-09-09T05:27:52;14.50;99.90
4548;DHT22;2286;51.570;7.090;2022-09-09T05:30:20;14.50;99.90
4548;DHT22;2286;51.570;7.090;2022-09-09T05:32:47;14.60;99.90
4548;DHT22;2286;51.570;7.090;2022-09-09T05:35:17;14.60;99.90
4548;DHT22;2286;51.570;7.090;2022-09-09T05:37:45;14.60;99.90
4548;DHT22;2286;51.570;7.090;2022-09-09T05:40:12;14.60;99.90
4548;DHT22;2286;51.570;7.090;2022-09-09T05:42:40;14.70;99.90
4548;DHT22;2286;51.570;7.090;2022-09-09T05:45:08;14.70;99.90
4548;DHT22;2286;51.570;7.090;2022-09-09T05:47:36;14.70;99.90
4548;DHT22;2286;51.570;7.090;2022-09-09T05:50:04;14.80;99.90
4548;DHT22;2286;51.570;7.090;2022-09-09T05:52:32;14.80;99.90
4548;DHT22;2286;51.570;7.090;2022-09-09T05:55:00;14.80;99.90
4548;DHT22;2286;51.570;7.090;2022-09-09T05:57:27;14.80;99.90
4548;DHT22;2286;51.570;7.090;2022-09-09T05:59:54;14.80;99.90
4548;DHT22;2286;51.570;7.090;2022-09-09T06:02:21;14.80;99.90
4548;DHT22;2286;51.570;7.090;2022-09-09T06:04:48;14.80;99.90
4548;DHT22;2286;51.570;7.090;2022-09-09T06:07:16;14.80;99.90
4548;DHT22;2286;51.570;7.090;2022-09-09T06:09:44;14.90;99.90
4548;DHT22;2286;51.570;7.090;2022-09-09T06:12:12;14.90;99.90
4548;DHT22;2286;51.570;7.090;2022-09-09T06:14:39;15.00;99.90
4548;DHT22;2286;51.570;7.090;2022-09-09T06:17:06;15.00;99.90
4548;DHT22;2286;51.570;7.090;2022-09-09T06:19:33;15.10;99.90
4548;DHT22;2286;51.570;7.090;2022-09-09T06:22:00;15.20;99.90
4548;DHT22;2286;51.570;7.090;2022-09-09T06:24:27;15.30;99.90
4548;DHT22;2286;51.570;7.090;2022-09-09T06:26:57;15.40;99.90
4548;DHT22;2286;51.570;7.090;2022-09-09T06:29:24;15.50;99.90
4548;DHT22;2286;51.570;7.090;2022-09-09T06:31:51;15.50;99.90
4548;DHT22;2286;51.570;7.090;2022-09-09T06:34:18;15.60;99.90
4548;DHT22;2286;51.570;7.090;2022-09-09T06:36:46;15.80;99.90
4548;DHT22;2286;51.570;7.090;2022-09-09T06:39:13;16.00;99.90
4548;DHT22;2286;51.570;7.090;2022-09-09T06:41:41;16.10;99.90
4548;DHT22;2286;51.570;7.090;2022-09-09T06:44:10;16.30;99.90
4548;DHT22;2286;51.570;7.090;2022-09-09T06:46:38;16.50;99.90
4548;DHT22;2286;51.570;7.090;2022-09-09T06:49:05;16.60;99.90
4548;DHT22;2286;51.570;7.090;2022-09-09T06:51:35;16.70;99.90
4548;DHT22;2286;51.570;7.090;2022-09-09T06:54:03;16.70;99.90
4548;DHT22;2286;51.570;7.090;2022-09-09T06:56:33;16.80;99.90
4548;DHT22;2286;51.570;7.090;2022-09-09T06:59:02;16.90;99.90
4548;DHT22;2286;51.570;7.090;2022-09-09T07:01:33;17.00;99.90
4548;DHT22;2286;51.570;7.090;2022-09-09T07:04:01;17.10;99.90
4548;DHT22;2286;51.570;7.090;2022-09-09T07:06:31;17.10;99.90
4548;DHT22;2286;51.570;7.090;2022-09-09T07:08:59;17.20;99.90
4548;DHT22;2286;51.570;7.090;2022-09-09T07:11:29;17.30;99.90
4548;DHT22;2286;51.570;7.090;2022-09-09T07:13:58;17.40;99.90
4548;DHT22;2286;51.570;7.090;2022-09-09T07:16:26;17.30;99.90
4548;DHT22;2286;51.570;7.090;2022-09-09T07:18:56;17.40;99.90
4548;DHT22;2286;51.570;7.090;2022-09-09T07:21:25;17.40;99.90
4548;DHT22;2286;51.570;7.090;2022-09-09T07:23:52;17.40;99.90
4548;DHT22;2286;51.570;7.090;2022-09-09T07:26:22;17.50;99.90
4548;DHT22;2286;51.570;7.090;2022-09-09T07:28:50;17.50;99.90
4548;DHT22;2286;51.570;7.090;2022-09-09T07:31:18;17.60;99.90
4548;DHT22;2286;51.570;7.090;2022-09-09T07:33:47;17.60;99.90
4548;DHT22;2286;51.570;7.090;2022-09-09T07:36:16;17.60;99.90
4548;DHT22;2286;51.570;7.090;2022-09-09T07:38:46;17.70;99.90
4548;DHT22;2286;51.570;7.090;2022-09-09T07:41:15;17.80;99.90
4548;DHT22;2286;51.570;7.090;2022-09-09T07:43:44;17.90;99.90
4548;DHT22;2286;51.570;7.090;2022-09-09T07:46:18;17.90;99.90
4548;DHT22;2286;51.570;7.090;2022-09-09T07:48:47;17.90;1.00
4548;DHT22;2286;51.570;7.090;2022-09-09T07:51:20;17.80;1.00
4548;DHT22;2286;51.570;7.090;2022-09-09T07:53:50;17.70;99.90
4548;DHT22;2286;51.570;7.090;2022-09-09T07:56:18;17.70;1.00
4548;DHT22;2286;51.570;7.090;2022-09-09T07:58:47;18.00;99.90
4548;DHT22;2286;51.570;7.090;2022-09-09T08:01:17;18.20;1.00
4548;DHT22;2286;51.570;7.090;2022-09-09T08:03:44;18.50;99.90
4548;DHT22;2286;51.570;7.090;2022-09-09T08:06:12;18.70;92.00
4548;DHT22;2286;51.570;7.090;2022-09-09T08:08:41;18.90;1.00
4548;DHT22;2286;51.570;7.090;2022-09-09T08:11:12;19.00;99.90
4548;DHT22;2286;51.570;7.090;2022-09-09T08:13:42;19.20;99.90
4548;DHT22;2286;51.570;7.090;2022-09-09T08:16:11;19.10;99.90
4548;DHT22;2286;51.570;7.090;2022-09-09T08:18:39;18.90;1.00
4548;DHT22;2286;51.570;7.090;2022-09-09T08:21:11;19.00;99.90
4548;DHT22;2286;51.570;7.090;2022-09-09T08:23:39;19.00;99.90
4548;DHT22;2286;51.570;7.090;2022-09-09T08:26:10;19.10;99.90
4548;DHT22;2286;51.570;7.090;2022-09-09T08:28:38;19.20;99.90
4548;DHT22;2286;51.570;7.090;2022-09-09T08:31:11;19.10;1.00
4548;DHT22;2286;51.570;7.090;2022-09-09T08:33:39;19.20;1.00
4548;DHT22;2286;51.570;7.090;2022-09-09T08:36:08;19.30;1.00
4548;DHT22;2286;51.570;7.090;2022-09-09T08:38:36;19.40;99.90
4548;DHT22;2286;51.570;7.090;2022-09-09T08:41:17;19.20;99.90
4548;DHT22;2286;51.570;7.090;2022-09-09T08:43:49;19.20;1.00
4548;DHT22;2286;51.570;7.090;2022-09-09T08:46:23;19.20;99.90
4548;DHT22;2286;51.570;7.090;2022-09-09T08:48:57;19.40;99.90
4548;DHT22;2286;51.570;7.090;2022-09-09T08:51:27;19.80;99.90
4548;DHT22;2286;51.570;7.090;2022-09-09T08:53:59;20.00;99.90
4548;DHT22;2286;51.570;7.090;2022-09-09T08:56:31;20.30;27.30
4548;DHT22;2286;51.570;7.090;2022-09-09T08:59:00;20.30;57.40
4548;DHT22;2286;51.570;7.090;2022-09-09T09:01:54;20.30;5.30
4548;DHT22;2286;51.570;7.090;2022-09-09T09:04:38;20.50;1.00
4548;DHT22;2286;51.570;7.090;2022-09-09T09:07:21;20.40;1.00
4548;DHT22;2286;51.570;7.090;2022-09-09T09:09:56;20.20;1.00
4548;DHT22;2286;51.570;7.090;2022-09-09T09:12:29;20.00;1.00
4548;DHT22;2286;51.570;7.090;2022-09-09T09:15:00;20.10;99.90
4548;DHT22;2286;51.570;7.090;2022-09-09T09:17:35;20.30;99.90
4548;DHT22;2286;51.570;7.090;2022-09-09T09:20:10;20.80;99.90
4548;DHT22;2286;51.570;7.090;2022-09-09T09:22:46;21.30;99.90
4548;DHT22;2286;51.570;7.090;2022-09-09T09:25:17;21.50;99.90
4548;DHT22;2286;51.570;7.090;2022-09-09T09:27:51;21.50;99.90
4548;DHT22;2286;51.570;7.090;2022-09-09T09:30:22;21.50;99.90
4548;DHT22;2286;51.570;7.090;2022-09-09T09:32:53;21.30;99.90
4548;DHT22;2286;51.570;7.090;2022-09-09T09:35:20;21.30;99.90
4548;DHT22;2286;51.570;7.090;2022-09-09T09:37:48;21.50;99.90
4548;DHT22;2286;51.570;7.090;2022-09-09T09:40:17;21.60;99.90
4548;DHT22;2286;51.570;7.090;2022-09-09T09:42:51;21.70;99.90
4548;DHT22;2286;51.570;7.090;2022-09-09T09:45:29;22.10;99.90
4548;DHT22;2286;51.570;7.090;2022-09-09T09:48:00;22.10;99.90
4548;DHT22;2286;51.570;7.090;2022-09-09T09:50:28;22.10;99.90
4548;DHT22;2286;51.570;7.090;2022-09-09T09:52:57;22.20;99.90
4548;DHT22;2286;51.570;7.090;2022-09-09T09:55:25;22.30;99.90
4548;DHT22;2286;51.570;7.090;2022-09-09T09:58:01;22.40;99.90
4548;DHT22;2286;51.570;7.090;2022-09-09T10:00:28;22.30;99.90
4548;DHT22;2286;51.570;7.090;2022-09-09T10:02:56;22.00;99.90
4548;DHT22;2286;51.570;7.090;2022-09-09T10:05:24;22.00;99.90
4548;DHT22;2286;51.570;7.090;2022-09-09T10:08:03;21.70;99.90
4548;DHT22;2286;51.570;7.090;2022-09-09T10:10:43;21.40;99.90
4548;DHT22;2286;51.570;7.090;2022-09-09T10:13:19;21.20;99.90
4548;DHT22;2286;51.570;7.090;2022-09-09T10:15:58;21.00;99.90
4548;DHT22;2286;51.570;7.090;2022-09-09T10:18:45;20.90;99.90
4548;DHT22;2286;51.570;7.090;2022-09-09T10:21:24;21.10;99.90
4548;DHT22;2286;51.570;7.090;2022-09-09T10:24:12;21.20;99.90
4548;DHT22;2286;51.570;7.090;2022-09-09T10:26:48;21.10;99.90
4548;DHT22;2286;51.570;7.090;2022-09-09T10:29:26;21.30;99.90
4548;DHT22;2286;51.570;7.090;2022-09-09T10:32:11;21.50;99.90
4548;DHT22;2286;51.570;7.090;2022-09-09T10:34:55;21.40;99.90
4548;DHT22;2286;51.570;7.090;2022-09-09T10:37:35;21.40;99.90
4548;DHT22;2286;51.570;7.090;2022-09-09T10:40:20;21.70;99.90
4548;DHT22;2286;51.570;7.090;2022-09-09T10:42:50;22.90;99.90
4548;DHT22;2286;51.570;7.090;2022-09-09T10:45:21;23.80;99.90
4548;DHT22;2286;51.570;7.090;2022-09-09T10:48:12;24.70;99.90
4548;DHT22;2286;51.570;7.090;2022-09-09T10:50:56;25.30;99.90
4548;DHT22;2286;51.570;7.090;2022-09-09T10:53:37;26.40;99.90
4548;DHT22;2286;51.570;7.090;2022-09-09T10:56:10;25.80;99.90
4548;DHT22;2286;51.570;7.090;2022-09-09T10:58:41;25.20;99.90
4548;DHT22;2286;51.570;7.090;2022-09-09T11:01:15;24.20;99.90
4548;DHT22;2286;51.570;7.090;2022-09-09T11:03:43;23.40;99.90
4548;DHT22;2286;51.570;7.090;2022-09-09T11:06:16;23.10;99.90
4548;DHT22;2286;51.570;7.090;2022-09-09T11:08:45;22.50;99.90
4548;DHT22;2286;51.570;7.090;2022-09-09T11:11:19;22.30;99.90
4548;DHT22;2286;51.570;7.090;2022-09-09T11:13:55;22.40;99.90
4548;DHT22;2286;51.570;7.090;2022-09-09T11:16:29;22.30;99.90
4548;DHT22;2286;51.570;7.090;2022-09-09T11:19:01;22.30;99.90
4548;DHT22;2286;51.570;7.090;2022-09-09T11:21:32;22.10;99.90
4548;DHT22;2286;51.570;7.090;2022-09-09T11:24:03;21.90;99.90
4548;DHT22;2286;51.570;7.090;2022-09-09T11:26:33;22.00;99.90
4548;DHT22;2286;51.570;7.090;2022-09-09T11:29:16;22.10;99.90
4548;DHT22;2286;51.570;7.090;2022-09-09T11:31:57;22.00;99.90
4548;DHT22;2286;51.570;7.090;2022-09-09T11:34:43;21.70;99.90
4548;DHT22;2286;51.570;7.090;2022-09-09T11:37:30;21.40;99.90
4548;DHT22;2286;51.570;7.090;2022-09-09T11:40:17;21.40;99.90
4548;DHT22;2286;51.570;7.090;2022-09-09T11:42:46;21.60;99.90
4548;DHT22;2286;51.570;7.090;2022-09-09T11:45:24;21.70;99.90
4548;DHT22;2286;51.570;7.090;2022-09-09T11:47:56;22.20;99.90
4548;DHT22;2286;51.570;7.090;2022-09-09T11:50:33;22.90;99.90
4548;DHT22;2286;51.570;7.090;2022-09-09T11:53:19;23.30;99.90
4548;DHT22;2286;51.570;7.090;2022-09-09T11:56:00;23.80;99.90
4548;DHT22;2286;51.570;7.090;2022-09-09T11:58:28;23.80;99.90
4548;DHT22;2286;51.570;7.090;2022-09-09T12:00:58;23.30;99.90
4548;DHT22;2286;51.570;7.090;2022-09-09T12:03:38;22.90;99.90
4548;DHT22;2286;51.570;7.090;2022-09-09T12:06:12;22.30;99.90
4548;DHT22;2286;51.570;7.090;2022-09-09T12:08:43;21.70;99.90
4548;DHT22;2286;51.570;7.090;2022-09-09T12:11:10;21.40;99.90
4548;DHT22;2286;51.570;7.090;2022-09-09T12:13:37;20.90;99.90
4548;DHT22;2286;51.570;7.090;2022-09-09T12:16:28;20.50;1.00
4548;DHT22;2286;51.570;7.090;2022-09-09T12:19:06;20.20;1.00
4548;DHT22;2286;51.570;7.090;2022-09-09T12:21:39;19.40;99.90
4548;DHT22;2286;51.570;7.090;2022-09-09T12:24:10;18.60;99.90
4548;DHT22;2286;51.570;7.090;2022-09-09T12:26:41;18.30;46.10
4548;DHT22;2286;51.570;7.090;2022-09-09T12:29:18;18.40;99.90
4548;DHT22;2286;51.570;7.090;2022-09-09T12:31:54;19.40;99.90
4548;DHT22;2286;51.570;7.090;2022-09-09T12:34:38;20.70;99.90
4548;DHT22;2286;51.570;7.090;2022-09-09T12:37:14;21.20;1.00
4548;DHT22;2286;51.570;7.090;2022-09-09T12:39:46;21.20;99.90
4548;DHT22;2286;51.570;7.090;2022-09-09T12:42:20;20.60;99.90
4548;DHT22;2286;51.570;7.090;2022-09-09T12:44:55;20.00;1.00
4548;DHT22;2286;51.570;7.090;2022-09-09T12:47:30;19.60;99.90
4548;DHT22;2286;51.570;7.090;2022-09-09T12:50:02;19.40;1.00
4548;DHT22;2286;51.570;7.090;2022-09-09T12:52:31;19.20;1.00
4548;DHT22;2286;51.570;7.090;2022-09-09T12:55:02;19.10;1.00
4548;DHT22;2286;51.570;7.090;2022-09-09T12:57:35;19.00;1.00
4548;DHT22;2286;51.570;7.090;2022-09-09T13:00:11;19.30;99.90
4548;DHT22;2286;51.570;7.090;2022-09-09T13:02:46;19.70;33.90
4548;DHT22;2286;51.570;7.090;2022-09-09T13:05:20;20.10;99.90
4548;DHT22;2286;51.570;7.090;2022-09-09T13:07:47;20.10;1.00
4548;DHT22;2286;51.570;7.090;2022-09-09T13:10:19;19.90;1.00
4548;DHT22;2286;51.570;7.090;2022-09-09T13:12:48;19.60;1.00
4548;DHT22;2286;51.570;7.090;2022-09-09T13:15:20;19.40;99.90
4548;DHT22;2286;51.570;7.090;2022-09-09T13:17:53;18.60;1.00
4548;DHT22;2286;51.570;7.090;2022-09-09T13:20:23;17.50;99.90
4548;DHT22;2286;51.570;7.090;2022-09-09T13:22:52;17.00;99.90
4548;DHT22;2286;51.570;7.090;2022-09-09T13:25:23;16.80;99.90
4548;DHT22;2286;51.570;7.090;2022-09-09T13:27:57;16.60;99.90
4548;DHT22;2286;51.570;7.090;2022-09-09T13:30:27;16.50;99.90
4548;DHT22;2286;51.570;7.090;2022-09-09T13:33:20;16.40;99.90
4548;DHT22;2286;51.570;7.090;2022-09-09T13:35:51;16.50;99.90
4548;DHT22;2286;51.570;7.090;2022-09-09T13:38:20;16.60;99.90
4548;DHT22;2286;51.570;7.090;2022-09-09T13:40:56;16.80;99.90
4548;DHT22;2286;51.570;7.090;2022-09-09T13:43:28;16.90;99.90
4548;DHT22;2286;51.570;7.090;2022-09-09T13:45:58;17.00;99.90
4548;DHT22;2286;51.570;7.090;2022-09-09T13:48:25;17.10;99.90
4548;DHT22;2286;51.570;7.090;2022-09-09T13:50:58;17.40;99.90
4548;DHT22;2286;51.570;7.090;2022-09-09T13:53:26;17.40;99.90
4548;DHT22;2286;51.570;7.090;2022-09-09T13:55:54;17.40;99.90
4548;DHT22;2286;51.570;7.090;2022-09-09T13:58:22;17.30;99.90
4548;DHT22;2286;51.570;7.090;2022-09-09T14:00:51;17.30;99.90
4548;DHT22;2286;51.570;7.090;2022-09-09T14:03:19;17.40;99.90
4548;DHT22;2286;51.570;7.090;2022-09-09T14:05:47;17.60;99.90
4548;DHT22;2286;51.570;7.090;2022-09-09T14:08:33;17.80;99.90
4548;DHT22;2286;51.570;7.090;2022-09-09T14:11:02;18.20;99.90
4548;DHT22;2286;51.570;7.090;2022-09-09T14:13:30;18.40;99.90
4548;DHT22;2286;51.570;7.090;2022-09-09T14:15:57;18.80;99.90
4548;DHT22;2286;51.570;7.090;2022-09-09T14:18:24;19.80;99.90
4548;DHT22;2286;51.570;7.090;2022-09-09T14:20:51;21.50;99.90
4548;DHT22;2286;51.570;7.090;2022-09-09T14:23:18;23.00;99.90
4548;DHT22;2286;51.570;7.090;2022-09-09T14:25:49;24.50;1.00
4548;DHT22;2286;51.570;7.090;2022-09-09T14:28:16;24.40;1.00
4548;DHT22;2286;51.570;7.090;2022-09-09T14:30:44;23.40;1.00
4548;DHT22;2286;51.570;7.090;2022-09-09T14:33:12;22.30;99.90
4548;DHT22;2286;51.570;7.090;2022-09-09T14:35:40;21.90;1.00
4548;DHT22;2286;51.570;7.090;2022-09-09T14:38:08;21.70;99.90
4548;DHT22;2286;51.570;7.090;2022-09-09T14:40:36;21.70;1.00
4548;DHT22;2286;51.570;7.090;2022-09-09T14:43:05;22.50;99.90
4548;DHT22;2286;51.570;7.090;2022-09-09T14:45:32;24.00;1.00
4548;DHT22;2286;51.570;7.090;2022-09-09T14:47:59;24.90;1.00
4548;DHT22;2286;51.570;7.090;2022-09-09T14:50:26;25.30;99.90
4548;DHT22;2286;51.570;7.090;2022-09-09T14:52:54;24.10;99.90
4548;DHT22;2286;51.570;7.090;2022-09-09T14:55:21;22.80;99.90
4548;DHT22;2286;51.570;7.090;2022-09-09T14:57:48;21.90;1.00
4548;DHT22;2286;51.570;7.090;2022-09-09T15:00:17;21.20;1.00
4548;DHT22;2286;51.570;7.090;2022-09-09T15:02:44;20.50;1.00
4548;DHT22;2286;51.570;7.090;2022-09-09T15:05:11;20.10;1.00
4548;DHT22;2286;51.570;7.090;2022-09-09T15:07:39;19.70;1.00
4548;DHT22;2286;51.570;7.090;2022-09-09T15:10:06;19.50;1.00
4548;DHT22;2286;51.570;7.090;2022-09-09T15:12:33;19.30;99.90
4548;DHT22;2286;51.570;7.090;2022-09-09T15:15:02;19.20;99.90
4548;DHT22;2286;51.570;7.090;2022-09-09T15:17:31;18.80;99.90
4548;DHT22;2286;51.570;7.090;2022-09-09T15:19:58;18.00;99.90
4548;DHT22;2286;51.570;7.090;2022-09-09T15:22:25;17.30;99.90
4548;DHT22;2286;51.570;7.090;2022-09-09T15:24:53;16.90;99.90
4548;DHT22;2286;51.570;7.090;2022-09-09T15:27:20;16.60;99.90
4548;DHT22;2286;51.570;7.090;2022-09-09T15:29:48;16.30;99.90
4548;DHT22;2286;51.570;7.090;2022-09-09T15:32:17;16.10;99.90
4548;DHT22;2286;51.570;7.090;2022-09-09T15:34:46;16.00;99.90
4548;DHT22;2286;51.570;7.090;2022-09-09T15:37:13;16.00;99.90
4548;DHT22;2286;51.570;7.090;2022-09-09T15:39:40;16.00;99.90
4548;DHT22;2286;51.570;7.090;2022-09-09T15:42:07;16.00;99.90
4548;DHT22;2286;51.570;7.090;2022-09-09T15:44:39;16.10;99.90
4548;DHT22;2286;51.570;7.090;2022-09-09T15:47:09;16.20;99.90
4548;DHT22;2286;51.570;7.090;2022-09-09T15:49:38;16.30;99.90
4548;DHT22;2286;51.570;7.090;2022-09-09T15:52:08;16.30;99.90
4548;DHT22;2286;51.570;7.090;2022-09-09T15:54:37;16.40;99.90
4548;DHT22;2286;51.570;7.090;2022-09-09T15:57:06;16.30;99.90
4548;DHT22;2286;51.570;7.090;2022-09-09T15:59:34;16.40;99.90
4548;DHT22;2286;51.570;7.090;2022-09-09T16:02:01;16.50;99.90
4548;DHT22;2286;51.570;7.090;2022-09-09T16:04:29;16.60;99.90
4548;DHT22;2286;51.570;7.090;2022-09-09T16:06:59;16.60;99.90
4548;DHT22;2286;51.570;7.090;2022-09-09T16:09:29;16.70;99.90
4548;DHT22;2286;51.570;7.090;2022-09-09T16:11:57;16.80;99.90
4548;DHT22;2286;51.570;7.090;2022-09-09T16:14:26;17.10;99.90
4548;DHT22;2286;51.570;7.090;2022-09-09T16:16:54;17.80;99.90
4548;DHT22;2286;51.570;7.090;2022-09-09T16:19:21;18.50;99.90
4548;DHT22;2286;51.570;7.090;2022-09-09T16:21:51;18.90;99.90
4548;DHT22;2286;51.570;7.090;2022-09-09T16:24:19;19.10;99.90
4548;DHT22;2286;51.570;7.090;2022-09-09T16:26:49;19.30;99.90
4548;DHT22;2286;51.570;7.090;2022-09-09T16:29:18;19.50;99.90
4548;DHT22;2286;51.570;7.090;2022-09-09T16:31:46;19.60;99.90